Time;durP1;ratioP1;P1;durP2;ratioP2;P2;SDS_P1;SDS_P2;PMS_P1;PMS_P2;Temp;Humidity;BMP_temperature;BMP_pressure;BME280_temperature;BME280_humidity;BME280_pressure;Samples;Min_cycle;Max_cycle;Signal;HPM_P1;HPM_P2
2022/08/11 00:00:00;;;;;;;7.05;2.40;;;;;;;;;;4992944;28;100101;-74
2022/08/11 00:02:38;;;;;;;5.65;2.30;;;;;;;;;;4993160;28;100351;-75
2022/08/11 00:05:15;;;;;;;5.15;2.30;;;;;;;;;;4992910;28;98477;-74
2022/08/11 00:07:44;;;;;;;5.47;2.78;;;;;;;;;;4996240;28;98924;-74
2022/08/11 00:10:13;;;;;;;3.17;2.13;;;;;;;;;;4993492;28;98546;-74
2022/08/11 00:12:40;;;;;;;2.63;2.20;;;;;;;;;;4991653;28;99975;-75
2022/08/11 00:15:08;;;;;;;2.30;2.00;;;;;;;;;;4992487;28;100089;-75
2022/08/11 00:17:35;;;;;;;7.78;2.78;;;;;;;;;;4993569;28;97950;-74
2022/08/11 00:20:04;;;;;;;3.75;2.53;;;;;;;;;;4992414;28;98849;-75
2022/08/11 00:22:42;;;;;;;6.38;2.40;;;;;;;;;;4993122;28;99361;-75
2022/08/11 00:25:12;;;;;;;2.95;2.53;;;;;;;;;;4993012;28;99784;-74
2022/08/11 00:27:40;;;;;;;4.75;2.78;;;;;;;;;;4993918;28;100685;-74
2022/08/11 00:30:07;;;;;;;5.60;2.20;;;;;;;;;;4997741;28;100697;-75
2022/08/11 00:32:34;;;;;;;6.30;2.30;;;;;;;;;;4994007;28;98987;-74
2022/08/11 00:35:02;;;;;;;3.08;2.50;;;;;;;;;;4992927;28;100833;-74
2022/08/11 00:37:50;;;;;;;3.67;2.40;;;;;;;;;;4992608;28;98357;-74
2022/08/11 00:40:27;;;;;;;6.88;2.65;;;;;;;;;;4992325;28;99037;-75
2022/08/11 00:43:00;;;;;;;8.45;1.98;;;;;;;;;;4992553;28;99034;-75
2022/08/11 00:45:27;;;;;;;6.05;2.35;;;;;;;;;;4992980;28;98562;-75
2022/08/11 00:47:56;;;;;;;5.60;2.30;;;;;;;;;;4991771;28;99425;-74
2022/08/11 00:50:25;;;;;;;;;;;;;;;;;;4995215;28;100056;-75
2022/08/11 00:52:57;;;;;;;5.15;2.60;;;;;;;;;;4992223;28;128648;-74
2022/08/11 00:55:24;;;;;;;;;;;;;;;;;;4992924;28;99572;-75
2022/08/11 00:58:09;;;;;;;9.13;2.35;;;;;;;;;;4992616;28;118383;-75
2022/08/11 01:01:02;;;;;;;3.15;2.60;;;;;;;;;;4990960;28;99054;-75
2022/08/11 01:03:41;;;;;;;4.20;2.15;;;;;;;;;;4975195;28;98780;-75
2022/08/11 01:06:40;;;;;;;4.45;2.75;;;;;;;;;;4992000;28;98549;-74
2022/08/11 01:09:23;;;;;;;11.95;2.72;;;;;;;;;;4969294;28;99025;-74
2022/08/11 01:12:02;;;;;;;4.07;2.78;;;;;;;;;;4991241;28;100112;-75
2022/08/11 01:14:47;;;;;;;5.03;2.75;;;;;;;;;;4995061;28;98512;-75
2022/08/11 01:17:39;;;;;;;3.92;2.25;;;;;;;;;;4991813;28;100218;-75
2022/08/11 01:20:30;;;;;;;3.75;3.00;;;;;;;;;;4988214;28;98561;-75
2022/08/11 01:23:30;;;;;;;4.93;2.67;;;;;;;;;;4991515;28;99970;-75
2022/08/11 01:26:12;;;;;;;5.60;2.72;;;;;;;;;;4992357;28;99575;-74
2022/08/11 01:28:44;;;;;;;11.77;3.53;;;;;;;;;;4991123;28;98679;-75
2022/08/11 01:31:29;;;;;;;7.80;3.45;;;;;;;;;;4992244;28;99362;-74
2022/08/11 01:34:13;;;;;;;5.85;3.00;;;;;;;;;;4992054;28;99563;-74
2022/08/11 01:36:58;;;;;;;4.20;3.10;;;;;;;;;;4991545;28;97813;-75
2022/08/11 01:39:33;;;;;;;6.50;3.05;;;;;;;;;;4995163;28;98490;-75
2022/08/11 01:44:51;;;;;;;4.38;2.85;;;;;;;;;;4991083;28;99487;-75
2022/08/11 01:47:51;;;;;;;3.08;2.78;;;;;;;;;;4991607;28;100366;-75
2022/08/11 01:50:23;;;;;;;3.83;3.53;;;;;;;;;;4991370;28;98484;-75
2022/08/11 01:53:03;;;;;;;9.20;3.22;;;;;;;;;;4991251;28;99903;-75
2022/08/11 01:55:37;;;;;;;3.30;3.05;;;;;;;;;;4991705;28;100109;-75
2022/08/11 01:58:15;;;;;;;3.35;3.05;;;;;;;;;;4991495;28;98942;-74
2022/08/11 02:00:57;;;;;;;3.28;2.97;;;;;;;;;;4992038;28;98498;-75
2022/08/11 02:03:36;;;;;;;10.70;3.40;;;;;;;;;;4994533;28;99564;-75
2022/08/11 02:09:06;;;;;;;3.60;3.38;;;;;;;;;;4991096;28;99895;-74
2022/08/11 02:11:35;;;;;;;6.95;3.50;;;;;;;;;;4989518;28;99483;-75
2022/08/11 02:14:23;;;;;;;3.60;3.15;;;;;;;;;;4991534;28;98506;-74
2022/08/11 02:17:08;;;;;;;4.55;2.92;;;;;;;;;;4990475;28;100332;-74
2022/08/11 02:25:41;;;;;;;4.72;3.85;;;;;;;;;;4990428;28;99652;-75
2022/08/11 02:28:19;;;;;;;4.35;3.65;;;;;;;;;;4994827;28;98545;-75
2022/08/11 02:33:21;;;;;;;8.45;4.25;;;;;;;;;;4991240;28;99582;-75
2022/08/11 02:34:11;;;;;;;4.25;3.83;;;;;;;;;;4991657;28;98541;-75
2022/08/11 02:36:44;;;;;;;4.55;3.72;;;;;;;;;;4991187;28;99919;-74
2022/08/11 02:39:13;;;;;;;8.70;4.13;;;;;;;;;;4989265;28;101058;-75
2022/08/11 02:45:10;;;;;;;9.98;3.70;;;;;;;;;;4990612;28;99013;-75
2022/08/11 02:50:55;;;;;;;4.10;3.70;;;;;;;;;;4990886;28;98682;-75
2022/08/11 02:53:28;;;;;;;6.10;4.00;;;;;;;;;;4993189;28;100230;-75
2022/08/11 02:56:12;;;;;;;4.70;4.35;;;;;;;;;;4991482;28;98600;-75
2022/08/11 02:59:48;;;;;;;7.18;3.95;;;;;;;;;;4991535;28;100008;-75
2022/08/11 03:01:48;;;;;;;7.00;4.30;;;;;;;;;;4990918;28;99340;-75
2022/08/11 03:04:22;;;;;;;9.05;4.32;;;;;;;;;;4990730;28;98522;-75
2022/08/11 03:07:12;;;;;;;4.78;4.10;;;;;;;;;;4990201;28;99685;-75
2022/08/11 03:10:02;;;;;;;4.73;3.90;;;;;;;;;;4990335;28;99455;-75
2022/08/11 03:18:25;;;;;;;4.78;4.38;;;;;;;;;;4990664;28;98566;-75
2022/08/11 03:20:51;;;;;;;5.13;4.25;;;;;;;;;;4989345;28;99486;-75
2022/08/11 03:23:28;;;;;;;5.03;4.20;;;;;;;;;;4992638;28;100496;-75
2022/08/11 03:26:00;;;;;;;7.75;4.43;;;;;;;;;;4994337;28;97773;-74
2022/08/11 03:28:35;;;;;;;4.63;4.30;;;;;;;;;;4993065;28;99104;-75
2022/08/11 03:31:02;;;;;;;4.57;4.18;;;;;;;;;;4993328;28;99533;-75
2022/08/11 03:36:31;;;;;;;;;;;;;;;;;;4973902;28;100563;-75
2022/08/11 03:39:18;;;;;;;4.35;4.05;;;;;;;;;;4976919;28;129582;-75
2022/08/11 03:41:58;;;;;;;7.70;4.50;;;;;;;;;;4972983;28;100855;-75
2022/08/11 03:44:46;;;;;;;6.15;5.43;;;;;;;;;;4973657;28;100480;-74
2022/08/11 03:47:18;;;;;;;4.68;4.30;;;;;;;;;;4974140;28;98512;-74
2022/08/11 03:50:05;;;;;;;6.55;4.65;;;;;;;;;;4972414;28;99955;-75
2022/08/11 03:52:31;;;;;;;7.10;4.30;;;;;;;;;;4973239;28;98761;-75
2022/08/11 03:55:07;;;;;;;8.95;4.72;;;;;;;;;;4973420;28;98586;-74
2022/08/11 03:57:36;;;;;;;5.30;4.80;;;;;;;;;;4972667;28;99170;-74
2022/08/11 04:00:16;;;;;;;7.53;5.07;;;;;;;;;;4972325;28;100409;-75
2022/08/11 04:02:45;;;;;;;5.68;5.07;;;;;;;;;;4976611;28;99055;-74
2022/08/11 04:05:20;;;;;;;7.65;4.78;;;;;;;;;;4981321;28;99634;-75
2022/08/11 04:07:52;;;;;;;8.30;4.68;;;;;;;;;;4993262;28;98555;-75
2022/08/11 04:10:21;;;;;;;5.85;4.72;;;;;;;;;;4992660;28;99253;-74
2022/08/11 04:13:08;;;;;;;5.05;4.70;;;;;;;;;;4992043;28;99655;-75
2022/08/11 04:16:01;;;;;;;6.15;4.90;;;;;;;;;;4993248;28;98521;-75
2022/08/11 04:18:56;;;;;;;6.43;4.78;;;;;;;;;;4992778;28;98969;-74
2022/08/11 04:21:35;;;;;;;7.13;4.80;;;;;;;;;;4992709;28;99548;-75
2022/08/11 04:24:04;;;;;;;5.72;4.25;;;;;;;;;;4992874;28;98931;-75
2022/08/11 04:27:10;;;;;;;9.38;4.55;;;;;;;;;;4995629;28;99891;-75
2022/08/11 04:30:13;;;;;;;4.80;4.35;;;;;;;;;;4992722;28;98481;-74
2022/08/11 04:32:56;;;;;;;11.90;4.70;;;;;;;;;;4969637;28;99148;-75
2022/08/11 04:35:42;;;;;;;5.35;4.85;;;;;;;;;;4992058;28;100275;-74
2022/08/11 04:38:34;;;;;;;6.43;4.47;;;;;;;;;;4991688;28;98662;-74
2022/08/11 04:41:19;;;;;;;5.28;4.65;;;;;;;;;;4992847;28;99175;-75
2022/08/11 04:44:04;;;;;;;5.78;5.13;;;;;;;;;;4992267;28;100316;-75
2022/08/11 04:46:34;;;;;;;9.00;4.50;;;;;;;;;;4993924;27;97923;-75
2022/08/11 05:04:02;;;;;;;6.40;4.55;;;;;;;;;;4992377;28;99090;-74
2022/08/11 05:06:31;;;;;;;5.15;4.72;;;;;;;;;;4971312;28;99455;-74
2022/08/11 05:09:08;;;;;;;5.53;5.03;;;;;;;;;;4972063;28;98692;-74
2022/08/11 05:11:49;;;;;;;5.95;4.90;;;;;;;;;;4971925;28;99985;-74
2022/08/11 05:34:53;;;;;;;6.13;5.50;;;;;;;;;;4982231;28;99149;-75
2022/08/11 05:37:22;;;;;;;5.85;5.25;;;;;;;;;;4991476;28;99267;-75
2022/08/11 05:57:34;;;;;;;5.90;5.32;;;;;;;;;;4991420;28;99301;-75
2022/08/11 06:00:17;;;;;;;6.80;5.20;;;;;;;;;;4991832;28;99682;-75
2022/08/11 06:02:47;;;;;;;11.05;5.78;;;;;;;;;;4990835;28;99024;-75
2022/08/11 06:05:14;;;;;;;5.57;5.05;;;;;;;;;;4994717;28;98990;-75
2022/08/11 06:07:45;;;;;;;6.78;5.07;;;;;;;;;;4991247;28;98540;-75
2022/08/11 06:10:25;;;;;;;15.18;6.50;;;;;;;;;;4991050;28;100137;-75
2022/08/11 06:12:54;;;;;;;5.60;5.10;;;;;;;;;;4990411;28;98528;-75
2022/08/11 06:15:21;;;;;;;7.03;5.32;;;;;;;;;;4991826;28;98449;-75
2022/08/11 06:17:50;;;;;;;6.43;5.78;;;;;;;;;;4990484;28;99230;-75
2022/08/11 06:20:17;;;;;;;8.35;5.32;;;;;;;;;;4991028;28;99562;-75
2022/08/11 06:22:45;;;;;;;8.50;5.50;;;;;;;;;;4990927;28;98543;-75
2022/08/11 06:25:18;;;;;;;8.60;5.35;;;;;;;;;;4990882;28;99032;-75
2022/08/11 06:27:45;;;;;;;13.65;5.22;;;;;;;;;;4993996;28;99844;-75
2022/08/11 06:30:14;;;;;;;9.77;5.15;;;;;;;;;;4991533;28;99523;-74
2022/08/11 06:32:43;;;;;;;11.13;5.60;;;;;;;;;;4990045;28;100199;-75
2022/08/11 06:35:36;;;;;;;6.60;5.07;;;;;;;;;;4991647;28;97745;-74
2022/08/11 06:38:06;;;;;;;9.20;5.38;;;;;;;;;;4959950;28;99596;-75
2022/08/11 06:44:00;;;;;;;5.93;4.55;;;;;;;;;;4991117;28;99560;-75
2022/08/11 06:46:37;;;;;;;7.47;4.63;;;;;;;;;;4986708;28;99693;-75
2022/08/11 06:49:05;;;;;;;9.50;5.50;;;;;;;;;;4991176;28;99733;-74
2022/08/11 06:51:34;;;;;;;15.70;4.38;;;;;;;;;;4994682;28;98556;-75
2022/08/11 06:54:01;;;;;;;9.15;4.75;;;;;;;;;;4989943;28;100441;-75
2022/08/11 07:02:27;;;;;;;7.40;4.30;;;;;;;;;;4992124;28;98542;-75
2022/08/11 07:05:01;;;;;;;4.88;4.28;;;;;;;;;;4995043;28;98516;-75
2022/08/11 07:16:46;;;;;;;4.85;3.67;;;;;;;;;;4997205;28;99833;-76
2022/08/11 07:30:30;;;;;;;5.43;2.95;;;;;;;;;;4994644;28;99187;-75
2022/08/11 07:32:58;;;;;;;6.05;3.28;;;;;;;;;;4993741;28;99467;-74
2022/08/11 07:35:29;;;;;;;6.85;3.15;;;;;;;;;;4993466;28;99394;-74
2022/08/11 07:37:57;;;;;;;8.80;3.30;;;;;;;;;;4996428;28;99498;-75
2022/08/11 07:40:28;;;;;;;5.18;2.92;;;;;;;;;;4993497;28;98397;-75
2022/08/11 07:42:55;;;;;;;14.32;2.92;;;;;;;;;;4993187;28;99290;-75
2022/08/11 07:53:38;;;;;;;16.52;2.78;;;;;;;;;;4992713;28;99325;-75
2022/08/11 07:56:24;;;;;;;6.78;2.97;;;;;;;;;;4993395;28;97795;-76
2022/08/11 08:18:48;;;;;;;4.88;2.55;;;;;;;;;;4993699;28;98572;-75
2022/08/11 08:21:15;;;;;;;9.60;2.08;;;;;;;;;;5000958;28;98599;-76
2022/08/11 08:23:43;;;;;;;5.30;2.50;;;;;;;;;;5001687;28;99665;-75
2022/08/11 08:30:46;;;;;;;5.57;2.72;;;;;;;;;;5002757;28;98488;-76
2022/08/11 08:31:47;;;;;;;12.65;2.60;;;;;;;;;;4991412;28;99328;-75
2022/08/11 08:34:14;;;;;;;10.50;2.53;;;;;;;;;;4993563;28;99847;-75
2022/08/11 08:36:44;;;;;;;12.68;2.08;;;;;;;;;;4992572;28;99647;-75
2022/08/11 08:39:11;;;;;;;16.33;3.67;;;;;;;;;;4992111;28;98485;-75
2022/08/11 08:41:38;;;;;;;6.47;2.55;;;;;;;;;;4991912;28;99062;-75
2022/08/11 08:44:07;;;;;;;3.90;2.30;;;;;;;;;;4992769;28;100521;-75
2022/08/11 08:46:55;;;;;;;9.15;2.45;;;;;;;;;;4992275;28;98851;-75
2022/08/11 08:49:24;;;;;;;7.25;2.30;;;;;;;;;;4995604;28;99995;-75
2022/08/11 08:51:52;;;;;;;6.57;2.60;;;;;;;;;;4991194;28;98624;-75
2022/08/11 08:54:40;;;;;;;8.45;2.45;;;;;;;;;;4992344;28;99905;-75
2022/08/11 08:57:07;;;;;;;2.33;2.13;;;;;;;;;;4991386;28;100948;-76
2022/08/11 08:59:39;;;;;;;8.68;2.30;;;;;;;;;;4991500;28;98974;-75
2022/08/11 09:02:15;;;;;;;4.80;2.20;;;;;;;;;;4992939;28;98832;-75
2022/08/11 09:04:44;;;;;;;16.80;3.08;;;;;;;;;;4992364;28;100254;-75
2022/08/11 09:07:12;;;;;;;7.47;2.30;;;;;;;;;;4992159;28;99477;-75
2022/08/11 09:09:42;;;;;;;11.95;2.30;;;;;;;;;;4993179;28;100252;-75
2022/08/11 09:12:09;;;;;;;10.57;2.22;;;;;;;;;;4996171;28;98502;-75
2022/08/11 09:17:22;;;;;;;9.65;2.35;;;;;;;;;;4992190;28;100952;-75
2022/08/11 09:19:57;;;;;;;4.43;1.70;;;;;;;;;;4991488;28;98623;-74
2022/08/11 09:27:55;;;;;;;7.40;2.30;;;;;;;;;;4991117;28;98632;-75
2022/08/11 09:30:25;;;;;;;5.93;2.25;;;;;;;;;;4992665;28;100606;-75
2022/08/11 09:32:56;;;;;;;6.90;2.53;;;;;;;;;;4991726;28;101082;-75
2022/08/11 09:35:26;;;;;;;4.53;2.20;;;;;;;;;;4994735;28;99032;-75
2022/08/11 09:40:39;;;;;;;4.95;2.58;;;;;;;;;;4991438;28;97805;-75
2022/08/11 09:45:57;;;;;;;7.80;2.00;;;;;;;;;;4991408;28;99482;-75
2022/08/11 09:48:24;;;;;;;8.35;2.00;;;;;;;;;;4990517;28;99307;-76
2022/08/11 09:50:51;;;;;;;8.25;2.42;;;;;;;;;;4991900;28;100799;-75
2022/08/11 09:53:21;;;;;;;5.07;2.13;;;;;;;;;;4991287;28;99669;-75
2022/08/11 09:58:12;;;;;;;11.05;2.40;;;;;;;;;;4994428;28;98578;-75
2022/08/11 09:58:51;;;;;;;5.65;2.15;;;;;;;;;;4990531;28;99012;-75
2022/08/11 10:01:25;;;;;;;3.85;2.00;;;;;;;;;;4992044;28;98544;-76
2022/08/11 10:04:14;;;;;;;8.40;1.92;;;;;;;;;;4990991;28;100252;-75
2022/08/11 10:09:40;;;;;;;8.20;1.88;;;;;;;;;;4990978;28;98451;-75
2022/08/11 10:12:16;;;;;;;2.97;2.38;;;;;;;;;;4991905;28;100584;-74
2022/08/11 10:17:30;;;;;;;2.83;1.88;;;;;;;;;;4991366;28;98547;-75
2022/08/11 10:19:57;;;;;;;4.47;1.83;;;;;;;;;;4993911;28;99140;-74
2022/08/11 10:28:03;;;;;;;1.70;1.60;;;;;;;;;;4991822;28;99613;-75
2022/08/11 10:36:31;;;;;;;7.13;1.90;;;;;;;;;;4995600;28;99436;-75
2022/08/11 10:38:58;;;;;;;5.65;1.70;;;;;;;;;;4994716;28;98564;-75
2022/08/11 10:44:34;;;;;;;1.52;1.30;;;;;;;;;;4997948;28;98442;-75
2022/08/11 10:51:11;;;;;;;13.48;2.00;;;;;;;;;;4994921;28;99302;-75
2022/08/11 11:00:50;;;;;;;2.38;2.08;;;;;;;;;;4995690;28;97860;-75
2022/08/11 11:03:16;;;;;;;6.32;2.03;;;;;;;;;;4995327;28;98441;-75
2022/08/11 11:05:49;;;;;;;3.78;1.52;;;;;;;;;;4994077;28;99363;-75
2022/08/11 11:08:53;;;;;;;3.80;1.42;;;;;;;;;;4998409;28;99911;-76
2022/08/11 11:19:57;;;;;;;4.53;1.90;;;;;;;;;;4992990;28;99635;-74
2022/08/11 11:22:37;;;;;;;7.70;1.92;;;;;;;;;;4994374;28;98534;-74
2022/08/11 11:25:18;;;;;;;4.18;1.45;;;;;;;;;;4994733;28;98842;-74
2022/08/11 11:27:45;;;;;;;;;;;;;;;;;;4993982;28;99057;-74
2022/08/11 11:30:13;;;;;;;5.63;1.90;;;;;;;;;;4994521;28;117257;-74
2022/08/11 11:32:48;;;;;;;3.63;1.75;;;;;;;;;;4997214;28;99444;-74
2022/08/11 11:35:15;;;;;;;5.82;1.77;;;;;;;;;;4993425;28;99107;-74
2022/08/11 11:37:43;;;;;;;3.50;1.73;;;;;;;;;;4994373;28;100793;-74
2022/08/11 11:40:29;;;;;;;3.50;1.80;;;;;;;;;;4993003;28;99399;-74
2022/08/11 11:42:58;;;;;;;1.70;1.60;;;;;;;;;;4993713;28;98506;-74
2022/08/11 11:45:24;;;;;;;18.13;2.30;;;;;;;;;;4994110;28;99100;-74
2022/08/11 11:47:52;;;;;;;7.45;1.73;;;;;;;;;;4992515;28;100246;-74
2022/08/11 11:50:30;;;;;;;2.25;1.80;;;;;;;;;;4994096;28;98468;-74
2022/08/11 11:52:59;;;;;;;6.80;2.25;;;;;;;;;;4993936;28;100397;-75
2022/08/11 11:55:26;;;;;;;2.15;1.77;;;;;;;;;;4995931;28;100341;-75
2022/08/11 12:03:29;;;;;;;5.57;1.60;;;;;;;;;;4993136;28;98601;-74
2022/08/11 12:05:56;;;;;;;2.38;1.45;;;;;;;;;;4993673;28;99197;-74
2022/08/11 12:08:23;;;;;;;3.83;1.50;;;;;;;;;;4993589;28;100259;-74
2022/08/11 12:13:39;;;;;;;1.33;1.23;;;;;;;;;;4993007;28;99072;-75
2022/08/11 12:13:42;;;;;;;12.50;1.67;;;;;;;;;;4993208;28;99020;-75
2022/08/11 12:16:09;;;;;;;5.05;2.10;;;;;;;;;;4995622;28;99261;-75
2022/08/11 12:18:58;;;;;;;3.47;1.50;;;;;;;;;;4993967;28;99405;-75
2022/08/11 12:21:25;;;;;;;5.30;1.90;;;;;;;;;;4992840;28;99506;-75
2022/08/11 12:29:35;;;;;;;3.90;1.98;;;;;;;;;;4993316;27;99221;-75
2022/08/11 12:32:06;;;;;;;3.13;1.98;;;;;;;;;;4993649;28;99103;-75
2022/08/11 12:34:32;;;;;;;2.35;1.50;;;;;;;;;;4993216;28;99076;-74
2022/08/11 12:37:00;;;;;;;5.43;2.08;;;;;;;;;;4991270;28;100198;-75
2022/08/11 12:45:28;;;;;;;11.40;1.67;;;;;;;;;;4993161;28;98202;-74
2022/08/11 12:54:07;;;;;;;2.72;1.73;;;;;;;;;;4991617;28;99236;-75
2022/08/11 13:05:02;;;;;;;5.07;1.75;;;;;;;;;;4995054;28;99265;-75
2022/08/11 13:07:30;;;;;;;1.40;1.30;;;;;;;;;;4992630;28;98503;-74
2022/08/11 13:13:03;;;;;;;1.58;1.48;;;;;;;;;;4992974;28;99061;-75
2022/08/11 13:15:50;;;;;;;4.15;1.92;;;;;;;;;;4994110;28;98344;-74
2022/08/11 13:18:21;;;;;;;2.85;1.30;;;;;;;;;;4994682;28;99879;-75
2022/08/11 13:20:53;;;;;;;3.63;1.42;;;;;;;;;;4993052;28;101240;-75
2022/08/11 13:23:20;;;;;;;1.98;1.67;;;;;;;;;;4995687;28;98912;-75
2022/08/11 13:25:47;;;;;;;2.63;1.33;;;;;;;;;;4992828;28;99130;-74
2022/08/11 13:28:15;;;;;;;2.85;1.50;;;;;;;;;;4995304;28;99479;-73
2022/08/11 13:33:27;;;;;;;8.05;1.58;;;;;;;;;;4992133;28;98929;-74
2022/08/11 13:35:54;;;;;;;3.30;1.60;;;;;;;;;;4992026;28;98425;-74
2022/08/11 13:38:23;;;;;;;4.07;1.30;;;;;;;;;;4994211;28;99153;-74
2022/08/11 13:40:51;;;;;;;6.28;1.20;;;;;;;;;;4991448;28;99453;-74
2022/08/11 13:43:21;;;;;;;3.92;1.60;;;;;;;;;;4992516;28;98518;-74
2022/08/11 13:45:48;;;;;;;2.67;1.33;;;;;;;;;;4991632;28;99278;-74
2022/08/11 13:48:15;;;;;;;5.55;1.77;;;;;;;;;;4991085;28;100184;-74
2022/08/11 13:53:30;;;;;;;3.60;1.60;;;;;;;;;;4991386;28;99429;-74
2022/08/11 13:55:59;;;;;;;2.42;1.52;;;;;;;;;;4990968;28;98580;-75
2022/08/11 13:58:26;;;;;;;6.20;1.80;;;;;;;;;;4992215;28;99245;-74
2022/08/11 14:01:06;;;;;;;2.50;1.38;;;;;;;;;;4991636;28;100164;-75
2022/08/11 14:03:53;;;;;;;2.42;1.40;;;;;;;;;;4992732;28;98371;-75
2022/08/11 14:06:49;;;;;;;6.18;1.83;;;;;;;;;;4990853;28;99035;-74
2022/08/11 14:09:18;;;;;;;1.85;1.60;;;;;;;;;;4991341;28;100404;-75
2022/08/11 14:14:55;;;;;;;5.32;2.00;;;;;;;;;;4994519;28;99813;-74
2022/08/11 14:17:22;;;;;;;4.38;2.30;;;;;;;;;;4992324;28;98511;-75
2022/08/11 14:20:09;;;;;;;6.65;1.67;;;;;;;;;;4991288;28;99186;-75
2022/08/11 14:22:56;;;;;;;2.17;1.83;;;;;;;;;;4990655;28;100308;-74
2022/08/11 14:25:22;;;;;;;2.35;1.85;;;;;;;;;;4991640;28;98622;-75
2022/08/11 14:28:09;;;;;;;3.28;1.48;;;;;;;;;;4991991;28;99896;-74
2022/08/11 14:30:55;;;;;;;3.65;1.30;;;;;;;;;;4991222;28;99586;-74
2022/08/11 14:33:27;;;;;;;;;;;;;;;;;;4992162;28;98493;-75
2022/08/11 14:36:13;;;;;;;5.93;1.63;;;;;;;;;;4995189;28;98499;-74
2022/08/11 14:38:40;;;;;;;1.67;1.58;;;;;;;;;;4990615;28;99238;-74
2022/08/11 14:49:27;;;;;;;6.93;2.03;;;;;;;;;;4991439;28;99157;-75
2022/08/11 14:51:54;;;;;;;2.40;1.75;;;;;;;;;;4989679;28;99288;-74
2022/08/11 14:57:08;;;;;;;4.10;1.40;;;;;;;;;;4991741;28;99061;-74
2022/08/11 14:59:35;;;;;;;6.18;1.40;;;;;;;;;;4993050;28;101848;-74
2022/08/11 15:04:49;;;;;;;4.40;1.80;;;;;;;;;;4989813;28;100225;-74
2022/08/11 15:07:16;;;;;;;2.00;1.83;;;;;;;;;;4990294;28;98537;-75
2022/08/11 15:09:43;;;;;;;10.35;1.70;;;;;;;;;;4991022;28;99010;-75
2022/08/11 15:12:31;;;;;;;1.90;1.60;;;;;;;;;;4989469;28;100088;-75
2022/08/11 15:17:46;;;;;;;4.03;1.83;;;;;;;;;;4990460;28;99200;-74
2022/08/11 15:25:49;;;;;;;2.22;1.70;;;;;;;;;;4992711;28;99459;-75
2022/08/11 15:39:34;;;;;;;2.65;1.30;;;;;;;;;;4993832;28;99078;-75
2022/08/11 15:47:47;;;;;;;2.83;1.87;;;;;;;;;;4995895;28;99684;-75
2022/08/11 15:50:17;;;;;;;3.28;1.63;;;;;;;;;;4994903;28;97774;-75
2022/08/11 15:52:54;;;;;;;4.38;1.73;;;;;;;;;;4993415;28;99522;-75
2022/08/11 15:55:22;;;;;;;3.47;1.90;;;;;;;;;;4992731;28;100908;-75
2022/08/11 16:04:13;;;;;;;3.00;1.52;;;;;;;;;;4993424;28;99916;-74
2022/08/11 16:06:42;;;;;;;4.88;1.83;;;;;;;;;;4993158;28;98867;-75
2022/08/11 16:09:17;;;;;;;6.63;1.70;;;;;;;;;;4992877;28;99344;-76
2022/08/11 16:11:44;;;;;;;2.10;1.58;;;;;;;;;;4995706;28;99306;-75
2022/08/11 16:16:58;;;;;;;2.95;1.60;;;;;;;;;;4993495;28;99392;-75
2022/08/11 16:19:27;;;;;;;2.22;1.65;;;;;;;;;;4993228;28;98511;-75
2022/08/11 16:21:54;;;;;;;6.65;1.88;;;;;;;;;;4992492;28;99950;-75
2022/08/11 16:24:21;;;;;;;4.45;1.77;;;;;;;;;;4992022;28;101141;-75
2022/08/11 16:27:10;;;;;;;2.72;1.60;;;;;;;;;;4992748;28;99037;-75
2022/08/11 16:29:42;;;;;;;3.72;2.15;;;;;;;;;;4990924;28;99929;-76
2022/08/11 16:32:19;;;;;;;3.88;1.45;;;;;;;;;;4992762;28;99372;-75
2022/08/11 16:40:21;;;;;;;7.93;1.90;;;;;;;;;;4994019;28;99110;-76
2022/08/11 16:48:27;;;;;;;1.83;1.42;;;;;;;;;;4992450;28;98557;-76
2022/08/11 16:51:02;;;;;;;3.53;1.55;;;;;;;;;;4991933;28;99792;-76
2022/08/11 16:53:29;;;;;;;7.00;2.17;;;;;;;;;;4993117;28;99356;-75
2022/08/11 16:56:21;;;;;;;5.03;1.63;;;;;;;;;;4998225;28;98472;-75
2022/08/11 17:01:36;;;;;;;1.45;1.30;;;;;;;;;;4993877;28;98536;-74
2022/08/11 17:13:11;;;;;;;6.63;1.73;;;;;;;;;;4992726;28;99299;-75
2022/08/11 17:18:39;;;;;;;3.67;1.48;;;;;;;;;;4992246;28;99267;-75
2022/08/11 17:21:11;;;;;;;2.38;1.23;;;;;;;;;;4995258;28;100949;-76
2022/08/11 17:23:51;;;;;;;2.67;1.35;;;;;;;;;;4992298;28;98539;-75
2022/08/11 17:26:23;;;;;;;5.38;1.45;;;;;;;;;;4991685;28;99125;-76
2022/08/11 17:28:50;;;;;;;;;;;;;;;;;;4991248;28;100302;-75
2022/08/11 17:36:54;;;;;;;6.80;1.38;;;;;;;;;;4992782;28;98520;-76
2022/08/11 17:39:23;;;;;;;6.15;1.73;;;;;;;;;;4992157;28;99340;-76
2022/08/11 17:50:08;;;;;;;4.25;1.88;;;;;;;;;;4992121;28;99502;-76
2022/08/11 18:01:05;;;;;;;2.33;2.13;;;;;;;;;;4990807;28;98492;-76
2022/08/11 18:03:38;;;;;;;3.90;1.70;;;;;;;;;;4992220;28;100097;-76
2022/08/11 18:06:05;;;;;;;6.13;1.70;;;;;;;;;;4991726;28;99347;-76
